Bay Shore, Michigan
Current Conditions -  °F | °C
As of 4:35 AM on Saturday 20 Dec 2014 (Local Time) from KCVX Reporting Station
Overcast Overcast  
Wind Chill: 17°   Ceiling: 2300
Heat Index: 24°   Visibility: 10mi
Dew Point: 22°   Wind: 6mph
Humidity: 91%   Direction: 150°SSE
Pressure: 30.3"   Gusts: NA
Location:  45.36°N, 85.1°W
Report Text: KCVX 200935Z AUTO 15005KT 10SM OVC023 M04/M06 A3030 RMK AO2 T10451057
Loading
Personal Weather Stations






























Interactive Weather Map New forecast layout! Learn more

10-Day Weather Forecast

Advertisements
Track Severe Weather on mobile